sensor_id;sensor_type;location;lat;lon;timestamp;P1;P2;P0
66111;PMS7003;52890;52.490;4.976;2022-11-12T00:00:05;2;9;
66111;PMS7003;52890;52.490;4.976;2022-11-12T00:01:05;7;2;
66111;PMS7003;52890;52.490;4.976;2022-11-12T00:02:05;5;7;
66111;PMS7003;52890;52.490;4.976;2022-11-12T00:03:05;11;5;
66111;PMS7003;52890;52.490;4.976;2022-11-12T00:04:05;9;11;
66111;PMS7003;52890;52.490;4.976;2022-11-12T00:05:05;7;9;
66111;PMS7003;52890;52.490;4.976;2022-11-12T00:06:05;9;7;
66111;PMS7003;52890;52.490;4.976;2022-11-12T00:07:05;4;9;
66111;PMS7003;52890;52.490;4.976;2022-11-12T00:08:05;7;4;
66111;PMS7003;52890;52.490;4.976;2022-11-12T00:09:05;5;7;
66111;PMS7003;52890;52.490;4.976;2022-11-12T00:10:05;8;8;
66111;PMS7003;52890;52.490;4.976;2022-11-12T00:11:05;5;8;
66111;PMS7003;52890;52.490;4.976;2022-11-12T00:12:05;9;5;
66111;PMS7003;52890;52.490;4.976;2022-11-12T00:13:05;5;9;
66111;PMS7003;52890;52.490;4.976;2022-11-12T00:14:05;8;5;
66111;PMS7003;52890;52.490;4.976;2022-11-12T00:15:05;5;8;
66111;PMS7003;52890;52.490;4.976;2022-11-12T00:16:05;5;5;
66111;PMS7003;52890;52.490;4.976;2022-11-12T00:17:05;6;5;
66111;PMS7003;52890;52.490;4.976;2022-11-12T00:18:05;6;9;
66111;PMS7003;52890;52.490;4.976;2022-11-12T00:19:05;10;6;
66111;PMS7003;52890;52.490;4.976;2022-11-12T00:20:05;6;10;
66111;PMS7003;52890;52.490;4.976;2022-11-12T00:21:05;6;9;
66111;PMS7003;52890;52.490;4.976;2022-11-12T00:22:05;7;9;
66111;PMS7003;52890;52.490;4.976;2022-11-12T00:23:05;6;7;
66111;PMS7003;52890;52.490;4.976;2022-11-12T00:24:05;8;9;
66111;PMS7003;52890;52.490;4.976;2022-11-12T00:25:05;4;8;
66111;PMS7003;52890;52.490;4.976;2022-11-12T00:26:05;7;4;
66111;PMS7003;52890;52.490;4.976;2022-11-12T00:27:05;4;7;
66111;PMS7003;52890;52.490;4.976;2022-11-12T00:28:06;5;11;
66111;PMS7003;52890;52.490;4.976;2022-11-12T00:29:05;9;8;
66111;PMS7003;52890;52.490;4.976;2022-11-12T00:30:05;6;9;
66111;PMS7003;52890;52.490;4.976;2022-11-12T00:31:05;7;6;
66111;PMS7003;52890;52.490;4.976;2022-11-12T00:32:05;7;7;
66111;PMS7003;52890;52.490;4.976;2022-11-12T00:33:05;6;7;
66111;PMS7003;52890;52.490;4.976;2022-11-12T00:34:05;6;6;
66111;PMS7003;52890;52.490;4.976;2022-11-12T00:35:05;7;6;
66111;PMS7003;52890;52.490;4.976;2022-11-12T00:36:05;8;7;
66111;PMS7003;52890;52.490;4.976;2022-11-12T00:37:05;8;8;
66111;PMS7003;52890;52.490;4.976;2022-11-12T00:38:05;9;8;
66111;PMS7003;52890;52.490;4.976;2022-11-12T00:39:05;6;9;
66111;PMS7003;52890;52.490;4.976;2022-11-12T00:40:05;3;9;
66111;PMS7003;52890;52.490;4.976;2022-11-12T00:41:05;7;3;
66111;PMS7003;52890;52.490;4.976;2022-11-12T00:42:05;8;7;
66111;PMS7003;52890;52.490;4.976;2022-11-12T00:43:05;6;8;
66111;PMS7003;52890;52.490;4.976;2022-11-12T00:44:05;6;6;
66111;PMS7003;52890;52.490;4.976;2022-11-12T00:45:05;6;6;
66111;PMS7003;52890;52.490;4.976;2022-11-12T00:46:05;6;6;
66111;PMS7003;52890;52.490;4.976;2022-11-12T00:47:05;8;6;
66111;PMS7003;52890;52.490;4.976;2022-11-12T00:48:05;6;8;
66111;PMS7003;52890;52.490;4.976;2022-11-12T00:49:05;6;6;
66111;PMS7003;52890;52.490;4.976;2022-11-12T00:50:05;6;8;
66111;PMS7003;52890;52.490;4.976;2022-11-12T00:51:05;6;6;
66111;PMS7003;52890;52.490;4.976;2022-11-12T00:52:05;6;8;
66111;PMS7003;52890;52.490;4.976;2022-11-12T00:53:05;8;9;
66111;PMS7003;52890;52.490;4.976;2022-11-12T00:54:05;4;8;
66111;PMS7003;52890;52.490;4.976;2022-11-12T00:55:05;10;4;
66111;PMS7003;52890;52.490;4.976;2022-11-12T00:56:05;7;10;
66111;PMS7003;52890;52.490;4.976;2022-11-12T00:57:05;6;10;
66111;PMS7003;52890;52.490;4.976;2022-11-12T00:58:05;6;6;
66111;PMS7003;52890;52.490;4.976;2022-11-12T00:59:05;8;6;
66111;PMS7003;52890;52.490;4.976;2022-11-12T01:00:05;5;8;
66111;PMS7003;52890;52.490;4.976;2022-11-12T01:01:05;6;5;
66111;PMS7003;52890;52.490;4.976;2022-11-12T01:02:05;4;6;
66111;PMS7003;52890;52.490;4.976;2022-11-12T01:03:05;8;4;
66111;PMS7003;52890;52.490;4.976;2022-11-12T01:04:05;8;10;
66111;PMS7003;52890;52.490;4.976;2022-11-12T01:05:05;7;8;
66111;PMS7003;52890;52.490;4.976;2022-11-12T01:06:06;6;7;
66111;PMS7003;52890;52.490;4.976;2022-11-12T01:07:05;5;6;
66111;PMS7003;52890;52.490;4.976;2022-11-12T01:08:05;7;8;
66111;PMS7003;52890;52.490;4.976;2022-11-12T01:09:05;6;7;
66111;PMS7003;52890;52.490;4.976;2022-11-12T01:10:05;8;6;
66111;PMS7003;52890;52.490;4.976;2022-11-12T01:11:06;6;8;
66111;PMS7003;52890;52.490;4.976;2022-11-12T01:12:05;5;6;
66111;PMS7003;52890;52.490;4.976;2022-11-12T01:13:05;7;5;
66111;PMS7003;52890;52.490;4.976;2022-11-12T01:14:06;6;7;
66111;PMS7003;52890;52.490;4.976;2022-11-12T01:15:06;8;9;
66111;PMS7003;52890;52.490;4.976;2022-11-12T01:16:05;6;8;
66111;PMS7003;52890;52.490;4.976;2022-11-12T01:17:05;8;6;
66111;PMS7003;52890;52.490;4.976;2022-11-12T01:18:05;6;8;
66111;PMS7003;52890;52.490;4.976;2022-11-12T01:19:06;7;6;
66111;PMS7003;52890;52.490;4.976;2022-11-12T01:20:05;9;7;
66111;PMS7003;52890;52.490;4.976;2022-11-12T01:21:05;5;9;
66111;PMS7003;52890;52.490;4.976;2022-11-12T01:22:05;7;5;
66111;PMS7003;52890;52.490;4.976;2022-11-12T01:23:05;3;7;
66111;PMS7003;52890;52.490;4.976;2022-11-12T01:24:05;6;3;
66111;PMS7003;52890;52.490;4.976;2022-11-12T01:25:05;9;6;
66111;PMS7003;52890;52.490;4.976;2022-11-12T01:26:05;5;9;
66111;PMS7003;52890;52.490;4.976;2022-11-12T01:27:05;9;5;
66111;PMS7003;52890;52.490;4.976;2022-11-12T01:28:05;11;12;
66111;PMS7003;52890;52.490;4.976;2022-11-12T01:29:05;5;11;
66111;PMS7003;52890;52.490;4.976;2022-11-12T01:30:05;5;5;
66111;PMS7003;52890;52.490;4.976;2022-11-12T01:31:10;6;5;
66111;PMS7003;52890;52.490;4.976;2022-11-12T01:32:05;5;6;
66111;PMS7003;52890;52.490;4.976;2022-11-12T01:33:05;5;5;
66111;PMS7003;52890;52.490;4.976;2022-11-12T01:34:05;6;5;
66111;PMS7003;52890;52.490;4.976;2022-11-12T01:35:05;2;6;
66111;PMS7003;52890;52.490;4.976;2022-11-12T01:36:05;5;2;
66111;PMS7003;52890;52.490;4.976;2022-11-12T01:37:05;5;5;
66111;PMS7003;52890;52.490;4.976;2022-11-12T01:38:05;3;5;
66111;PMS7003;52890;52.490;4.976;2022-11-12T01:39:06;7;3;
66111;PMS7003;52890;52.490;4.976;2022-11-12T01:40:05;6;9;
66111;PMS7003;52890;52.490;4.976;2022-11-12T01:41:05;5;6;
66111;PMS7003;52890;52.490;4.976;2022-11-12T01:42:05;3;5;
66111;PMS7003;52890;52.490;4.976;2022-11-12T01:43:08;5;3;
66111;PMS7003;52890;52.490;4.976;2022-11-12T01:44:06;3;5;
66111;PMS7003;52890;52.490;4.976;2022-11-12T01:45:10;4;3;
66111;PMS7003;52890;52.490;4.976;2022-11-12T01:46:06;5;4;
66111;PMS7003;52890;52.490;4.976;2022-11-12T01:47:05;5;5;
66111;PMS7003;52890;52.490;4.976;2022-11-12T01:48:05;10;5;
66111;PMS7003;52890;52.490;4.976;2022-11-12T01:49:05;7;10;
66111;PMS7003;52890;52.490;4.976;2022-11-12T01:50:06;6;10;
66111;PMS7003;52890;52.490;4.976;2022-11-12T01:51:05;7;6;
66111;PMS7003;52890;52.490;4.976;2022-11-12T01:52:10;6;7;
66111;PMS7003;52890;52.490;4.976;2022-11-12T01:53:06;7;6;
66111;PMS7003;52890;52.490;4.976;2022-11-12T01:54:05;9;9;
66111;PMS7003;52890;52.490;4.976;2022-11-12T01:55:06;7;9;
66111;PMS7003;52890;52.490;4.976;2022-11-12T01:56:05;5;7;
66111;PMS7003;52890;52.490;4.976;2022-11-12T01:57:05;8;8;
66111;PMS7003;52890;52.490;4.976;2022-11-12T01:58:06;6;8;
66111;PMS7003;52890;52.490;4.976;2022-11-12T01:59:05;7;6;
66111;PMS7003;52890;52.490;4.976;2022-11-12T02:00:06;5;7;
66111;PMS7003;52890;52.490;4.976;2022-11-12T02:01:05;7;5;
66111;PMS7003;52890;52.490;4.976;2022-11-12T02:02:05;8;7;
66111;PMS7003;52890;52.490;4.976;2022-11-12T02:03:06;6;8;
66111;PMS7003;52890;52.490;4.976;2022-11-12T02:04:05;7;6;
66111;PMS7003;52890;52.490;4.976;2022-11-12T02:05:06;6;7;
66111;PMS7003;52890;52.490;4.976;2022-11-12T02:06:07;10;6;
66111;PMS7003;52890;52.490;4.976;2022-11-12T02:07:05;9;13;
66111;PMS7003;52890;52.490;4.976;2022-11-12T02:08:05;8;9;
66111;PMS7003;52890;52.490;4.976;2022-11-12T02:09:05;8;8;
66111;PMS7003;52890;52.490;4.976;2022-11-12T02:10:05;8;8;
66111;PMS7003;52890;52.490;4.976;2022-11-12T02:11:09;6;8;
66111;PMS7003;52890;52.490;4.976;2022-11-12T02:12:05;8;6;
66111;PMS7003;52890;52.490;4.976;2022-11-12T02:13:05;7;8;
66111;PMS7003;52890;52.490;4.976;2022-11-12T02:14:05;8;7;
66111;PMS7003;52890;52.490;4.976;2022-11-12T02:15:05;10;8;
66111;PMS7003;52890;52.490;4.976;2022-11-12T02:16:05;10;13;
66111;PMS7003;52890;52.490;4.976;2022-11-12T02:17:05;7;10;
66111;PMS7003;52890;52.490;4.976;2022-11-12T02:18:05;8;7;
66111;PMS7003;52890;52.490;4.976;2022-11-12T02:19:06;11;8;
66111;PMS7003;52890;52.490;4.976;2022-11-12T02:20:07;8;11;
66111;PMS7003;52890;52.490;4.976;2022-11-12T02:21:07;17;8;
66111;PMS7003;52890;52.490;4.976;2022-11-12T02:22:05;11;20;
66111;PMS7003;52890;52.490;4.976;2022-11-12T02:23:05;10;11;
66111;PMS7003;52890;52.490;4.976;2022-11-12T02:24:06;9;10;
66111;PMS7003;52890;52.490;4.976;2022-11-12T02:25:05;19;9;
66111;PMS7003;52890;52.490;4.976;2022-11-12T02:26:05;8;19;
66111;PMS7003;52890;52.490;4.976;2022-11-12T02:27:05;8;8;
66111;PMS7003;52890;52.490;4.976;2022-11-12T02:28:05;8;8;
66111;PMS7003;52890;52.490;4.976;2022-11-12T02:29:05;8;8;
66111;PMS7003;52890;52.490;4.976;2022-11-12T02:30:05;11;12;
66111;PMS7003;52890;52.490;4.976;2022-11-12T02:31:05;10;11;
66111;PMS7003;52890;52.490;4.976;2022-11-12T02:32:05;13;10;
66111;PMS7003;52890;52.490;4.976;2022-11-12T02:33:05;10;13;
66111;PMS7003;52890;52.490;4.976;2022-11-12T02:34:05;10;10;
66111;PMS7003;52890;52.490;4.976;2022-11-12T02:35:05;12;10;
66111;PMS7003;52890;52.490;4.976;2022-11-12T02:36:05;7;20;
66111;PMS7003;52890;52.490;4.976;2022-11-12T02:37:05;12;7;
66111;PMS7003;52890;52.490;4.976;2022-11-12T02:38:05;10;14;
66111;PMS7003;52890;52.490;4.976;2022-11-12T02:39:05;8;10;
66111;PMS7003;52890;52.490;4.976;2022-11-12T02:40:05;12;8;
66111;PMS7003;52890;52.490;4.976;2022-11-12T02:41:05;6;14;
66111;PMS7003;52890;52.490;4.976;2022-11-12T02:42:05;14;6;
66111;PMS7003;52890;52.490;4.976;2022-11-12T02:43:05;8;14;
66111;PMS7003;52890;52.490;4.976;2022-11-12T02:44:05;12;8;
66111;PMS7003;52890;52.490;4.976;2022-11-12T02:45:05;12;12;
66111;PMS7003;52890;52.490;4.976;2022-11-12T02:46:05;11;12;
66111;PMS7003;52890;52.490;4.976;2022-11-12T02:47:05;15;11;
66111;PMS7003;52890;52.490;4.976;2022-11-12T02:48:05;12;15;
66111;PMS7003;52890;52.490;4.976;2022-11-12T02:49:05;9;14;
66111;PMS7003;52890;52.490;4.976;2022-11-12T02:50:05;17;9;
66111;PMS7003;52890;52.490;4.976;2022-11-12T02:51:05;9;17;
66111;PMS7003;52890;52.490;4.976;2022-11-12T02:52:05;13;9;
66111;PMS7003;52890;52.490;4.976;2022-11-12T02:53:05;11;13;
66111;PMS7003;52890;52.490;4.976;2022-11-12T02:54:05;16;11;
66111;PMS7003;52890;52.490;4.976;2022-11-12T02:55:05;11;16;
66111;PMS7003;52890;52.490;4.976;2022-11-12T02:56:05;14;11;
66111;PMS7003;52890;52.490;4.976;2022-11-12T02:57:05;17;14;
66111;PMS7003;52890;52.490;4.976;2022-11-12T02:58:05;19;17;
66111;PMS7003;52890;52.490;4.976;2022-11-12T02:59:05;13;19;
66111;PMS7003;52890;52.490;4.976;2022-11-12T03:00:06;19;13;
66111;PMS7003;52890;52.490;4.976;2022-11-12T03:01:05;13;19;
66111;PMS7003;52890;52.490;4.976;2022-11-12T03:02:05;18;13;
66111;PMS7003;52890;52.490;4.976;2022-11-12T03:03:05;14;18;
66111;PMS7003;52890;52.490;4.976;2022-11-12T03:04:05;8;14;
66111;PMS7003;52890;52.490;4.976;2022-11-12T03:05:05;11;8;
66111;PMS7003;52890;52.490;4.976;2022-11-12T03:06:05;15;11;
66111;PMS7003;52890;52.490;4.976;2022-11-12T03:07:05;16;17;
66111;PMS7003;52890;52.490;4.976;2022-11-12T03:08:06;15;19;
66111;PMS7003;52890;52.490;4.976;2022-11-12T03:09:05;16;15;
66111;PMS7003;52890;52.490;4.976;2022-11-12T03:10:05;9;16;
66111;PMS7003;52890;52.490;4.976;2022-11-12T03:11:05;7;12;
66111;PMS7003;52890;52.490;4.976;2022-11-12T03:12:05;14;7;
66111;PMS7003;52890;52.490;4.976;2022-11-12T03:13:05;12;14;
66111;PMS7003;52890;52.490;4.976;2022-11-12T03:14:05;12;12;
66111;PMS7003;52890;52.490;4.976;2022-11-12T03:15:05;16;14;
66111;PMS7003;52890;52.490;4.976;2022-11-12T03:16:05;11;16;
66111;PMS7003;52890;52.490;4.976;2022-11-12T03:17:05;25;19;
66111;PMS7003;52890;52.490;4.976;2022-11-12T03:18:05;13;25;
66111;PMS7003;52890;52.490;4.976;2022-11-12T03:19:05;14;13;
66111;PMS7003;52890;52.490;4.976;2022-11-12T03:20:05;14;14;
66111;PMS7003;52890;52.490;4.976;2022-11-12T03:21:05;15;17;
66111;PMS7003;52890;52.490;4.976;2022-11-12T03:22:05;14;18;
66111;PMS7003;52890;52.490;4.976;2022-11-12T03:23:06;12;17;
66111;PMS7003;52890;52.490;4.976;2022-11-12T03:24:05;12;12;
66111;PMS7003;52890;52.490;4.976;2022-11-12T03:25:06;11;12;
66111;PMS7003;52890;52.490;4.976;2022-11-12T03:26:05;15;11;
66111;PMS7003;52890;52.490;4.976;2022-11-12T03:27:05;11;15;
66111;PMS7003;52890;52.490;4.976;2022-11-12T03:28:06;14;14;
66111;PMS7003;52890;52.490;4.976;2022-11-12T03:29:05;14;14;
66111;PMS7003;52890;52.490;4.976;2022-11-12T03:30:05;13;14;
66111;PMS7003;52890;52.490;4.976;2022-11-12T03:31:05;13;13;
66111;PMS7003;52890;52.490;4.976;2022-11-12T03:32:05;12;13;
66111;PMS7003;52890;52.490;4.976;2022-11-12T03:33:05;16;15;
66111;PMS7003;52890;52.490;4.976;2022-11-12T03:34:05;11;16;
66111;PMS7003;52890;52.490;4.976;2022-11-12T03:35:05;20;13;
66111;PMS7003;52890;52.490;4.976;2022-11-12T03:36:05;17;22;
66111;PMS7003;52890;52.490;4.976;2022-11-12T03:37:05;14;17;
66111;PMS7003;52890;52.490;4.976;2022-11-12T03:38:05;15;16;
66111;PMS7003;52890;52.490;4.976;2022-11-12T03:39:05;14;17;
66111;PMS7003;52890;52.490;4.976;2022-11-12T03:40:05;14;14;
66111;PMS7003;52890;52.490;4.976;2022-11-12T03:41:05;17;14;
66111;PMS7003;52890;52.490;4.976;2022-11-12T03:42:05;12;19;
66111;PMS7003;52890;52.490;4.976;2022-11-12T03:43:05;13;14;
66111;PMS7003;52890;52.490;4.976;2022-11-12T03:44:05;15;13;
66111;PMS7003;52890;52.490;4.976;2022-11-12T03:45:05;16;15;
66111;PMS7003;52890;52.490;4.976;2022-11-12T03:46:05;14;16;
66111;PMS7003;52890;52.490;4.976;2022-11-12T03:47:05;14;14;
66111;PMS7003;52890;52.490;4.976;2022-11-12T03:48:05;12;14;
66111;PMS7003;52890;52.490;4.976;2022-11-12T03:49:05;10;15;
66111;PMS7003;52890;52.490;4.976;2022-11-12T03:50:05;18;10;
66111;PMS7003;52890;52.490;4.976;2022-11-12T03:51:05;17;32;
66111;PMS7003;52890;52.490;4.976;2022-11-12T03:52:05;14;22;
66111;PMS7003;52890;52.490;4.976;2022-11-12T03:53:05;12;17;
66111;PMS7003;52890;52.490;4.976;2022-11-12T03:54:05;18;12;
66111;PMS7003;52890;52.490;4.976;2022-11-12T03:55:05;9;18;
66111;PMS7003;52890;52.490;4.976;2022-11-12T03:56:05;22;9;
66111;PMS7003;52890;52.490;4.976;2022-11-12T03:57:05;14;22;
66111;PMS7003;52890;52.490;4.976;2022-11-12T03:58:05;17;22;
66111;PMS7003;52890;52.490;4.976;2022-11-12T03:59:05;20;17;
66111;PMS7003;52890;52.490;4.976;2022-11-12T04:00:06;22;20;
66111;PMS7003;52890;52.490;4.976;2022-11-12T04:01:05;14;22;
66111;PMS7003;52890;52.490;4.976;2022-11-12T04:02:05;21;14;
66111;PMS7003;52890;52.490;4.976;2022-11-12T04:03:05;12;23;
66111;PMS7003;52890;52.490;4.976;2022-11-12T04:04:05;12;12;
66111;PMS7003;52890;52.490;4.976;2022-11-12T04:05:05;12;12;
66111;PMS7003;52890;52.490;4.976;2022-11-12T04:06:05;14;20;
66111;PMS7003;52890;52.490;4.976;2022-11-12T04:07:05;15;14;
66111;PMS7003;52890;52.490;4.976;2022-11-12T04:08:05;18;18;
66111;PMS7003;52890;52.490;4.976;2022-11-12T04:09:05;11;18;
66111;PMS7003;52890;52.490;4.976;2022-11-12T04:10:05;15;11;
66111;PMS7003;52890;52.490;4.976;2022-11-12T04:11:06;16;17;
66111;PMS7003;52890;52.490;4.976;2022-11-12T04:12:05;13;16;
66111;PMS7003;52890;52.490;4.976;2022-11-12T04:13:05;12;13;
66111;PMS7003;52890;52.490;4.976;2022-11-12T04:14:05;16;12;
66111;PMS7003;52890;52.490;4.976;2022-11-12T04:15:05;13;19;
66111;PMS7003;52890;52.490;4.976;2022-11-12T04:16:06;26;13;
66111;PMS7003;52890;52.490;4.976;2022-11-12T04:17:05;10;31;
66111;PMS7003;52890;52.490;4.976;2022-11-12T04:18:05;17;10;
66111;PMS7003;52890;52.490;4.976;2022-11-12T04:19:05;17;17;
66111;PMS7003;52890;52.490;4.976;2022-11-12T04:20:05;12;17;
66111;PMS7003;52890;52.490;4.976;2022-11-12T04:21:06;14;12;
66111;PMS7003;52890;52.490;4.976;2022-11-12T04:22:05;15;22;
66111;PMS7003;52890;52.490;4.976;2022-11-12T04:23:05;15;15;
66111;PMS7003;52890;52.490;4.976;2022-11-12T04:24:05;16;18;
66111;PMS7003;52890;52.490;4.976;2022-11-12T04:25:05;11;19;
66111;PMS7003;52890;52.490;4.976;2022-11-12T04:26:05;11;11;
66111;PMS7003;52890;52.490;4.976;2022-11-12T04:27:06;16;13;
66111;PMS7003;52890;52.490;4.976;2022-11-12T04:28:05;19;16;
66111;PMS7003;52890;52.490;4.976;2022-11-12T04:29:05;9;21;
66111;PMS7003;52890;52.490;4.976;2022-11-12T04:30:05;11;12;
66111;PMS7003;52890;52.490;4.976;2022-11-12T04:31:05;19;11;
66111;PMS7003;52890;52.490;4.976;2022-11-12T04:32:05;17;19;
66111;PMS7003;52890;52.490;4.976;2022-11-12T04:33:05;19;17;
66111;PMS7003;52890;52.490;4.976;2022-11-12T04:34:05;14;19;
66111;PMS7003;52890;52.490;4.976;2022-11-12T04:35:06;20;17;
66111;PMS7003;52890;52.490;4.976;2022-11-12T04:36:05;18;20;
66111;PMS7003;52890;52.490;4.976;2022-11-12T04:37:05;19;18;
66111;PMS7003;52890;52.490;4.976;2022-11-12T04:38:05;18;23;
66111;PMS7003;52890;52.490;4.976;2022-11-12T04:39:05;19;18;
66111;PMS7003;52890;52.490;4.976;2022-11-12T04:40:05;22;19;
66111;PMS7003;52890;52.490;4.976;2022-11-12T04:41:06;25;22;
66111;PMS7003;52890;52.490;4.976;2022-11-12T04:42:06;13;30;
66111;PMS7003;52890;52.490;4.976;2022-11-12T04:43:06;18;16;
66111;PMS7003;52890;52.490;4.976;2022-11-12T04:44:05;20;18;
66111;PMS7003;52890;52.490;4.976;2022-11-12T04:45:05;27;23;
66111;PMS7003;52890;52.490;4.976;2022-11-12T04:46:05;20;27;
66111;PMS7003;52890;52.490;4.976;2022-11-12T04:47:05;22;25;
66111;PMS7003;52890;52.490;4.976;2022-11-12T04:48:05;20;22;
66111;PMS7003;52890;52.490;4.976;2022-11-12T04:49:05;19;23;
66111;PMS7003;52890;52.490;4.976;2022-11-12T04:50:12;22;19;
66111;PMS7003;52890;52.490;4.976;2022-11-12T04:51:05;13;25;
66111;PMS7003;52890;52.490;4.976;2022-11-12T04:52:05;24;13;
66111;PMS7003;52890;52.490;4.976;2022-11-12T04:53:05;18;32;
66111;PMS7003;52890;52.490;4.976;2022-11-12T04:54:05;18;23;
66111;PMS7003;52890;52.490;4.976;2022-11-12T04:55:05;15;23;
66111;PMS7003;52890;52.490;4.976;2022-11-12T04:56:05;16;15;
66111;PMS7003;52890;52.490;4.976;2022-11-12T04:57:05;12;16;
66111;PMS7003;52890;52.490;4.976;2022-11-12T04:58:05;15;12;
66111;PMS7003;52890;52.490;4.976;2022-11-12T04:59:05;28;18;
66111;PMS7003;52890;52.490;4.976;2022-11-12T05:00:05;23;33;
66111;PMS7003;52890;52.490;4.976;2022-11-12T05:01:05;18;25;
66111;PMS7003;52890;52.490;4.976;2022-11-12T05:02:05;21;21;
66111;PMS7003;52890;52.490;4.976;2022-11-12T05:03:05;23;21;
66111;PMS7003;52890;52.490;4.976;2022-11-12T05:04:05;21;26;
66111;PMS7003;52890;52.490;4.976;2022-11-12T05:05:05;17;24;
66111;PMS7003;52890;52.490;4.976;2022-11-12T05:06:05;16;22;
66111;PMS7003;52890;52.490;4.976;2022-11-12T05:07:05;20;16;
66111;PMS7003;52890;52.490;4.976;2022-11-12T05:08:05;16;23;
66111;PMS7003;52890;52.490;4.976;2022-11-12T05:09:05;16;19;
66111;PMS7003;52890;52.490;4.976;2022-11-12T05:10:05;15;19;
66111;PMS7003;52890;52.490;4.976;2022-11-12T05:11:05;32;17;
66111;PMS7003;52890;52.490;4.976;2022-11-12T05:12:05;21;34;
66111;PMS7003;52890;52.490;4.976;2022-11-12T05:13:05;23;21;
66111;PMS7003;52890;52.490;4.976;2022-11-12T05:14:05;18;23;
66111;PMS7003;52890;52.490;4.976;2022-11-12T05:15:05;32;18;
66111;PMS7003;52890;52.490;4.976;2022-11-12T05:16:05;20;33;
66111;PMS7003;52890;52.490;4.976;2022-11-12T05:17:05;20;23;
66111;PMS7003;52890;52.490;4.976;2022-11-12T05:18:05;16;23;
66111;PMS7003;52890;52.490;4.976;2022-11-12T05:19:05;23;19;
66111;PMS7003;52890;52.490;4.976;2022-11-12T05:20:05;23;26;
66111;PMS7003;52890;52.490;4.976;2022-11-12T05:21:05;22;23;
66111;PMS7003;52890;52.490;4.976;2022-11-12T05:22:05;22;24;
66111;PMS7003;52890;52.490;4.976;2022-11-12T05:23:05;24;34;
66111;PMS7003;52890;52.490;4.976;2022-11-12T05:24:05;18;24;
66111;PMS7003;52890;52.490;4.976;2022-11-12T05:25:05;22;18;
66111;PMS7003;52890;52.490;4.976;2022-11-12T05:26:05;21;22;
66111;PMS7003;52890;52.490;4.976;2022-11-12T05:27:06;22;23;
66111;PMS7003;52890;52.490;4.976;2022-11-12T05:28:05;23;22;
66111;PMS7003;52890;52.490;4.976;2022-11-12T05:29:05;14;23;
66111;PMS7003;52890;52.490;4.976;2022-11-12T05:30:06;32;14;
66111;PMS7003;52890;52.490;4.976;2022-11-12T05:31:05;36;33;
66111;PMS7003;52890;52.490;4.976;2022-11-12T05:32:06;18;48;
66111;PMS7003;52890;52.490;4.976;2022-11-12T05:33:05;30;23;
66111;PMS7003;52890;52.490;4.976;2022-11-12T05:34:05;20;43;
66111;PMS7003;52890;52.490;4.976;2022-11-12T05:35:05;36;30;
66111;PMS7003;52890;52.490;4.976;2022-11-12T05:36:05;23;40;
66111;PMS7003;52890;52.490;4.976;2022-11-12T05:37:05;23;28;
66111;PMS7003;52890;52.490;4.976;2022-11-12T05:38:05;23;26;
66111;PMS7003;52890;52.490;4.976;2022-11-12T05:39:05;20;23;
66111;PMS7003;52890;52.490;4.976;2022-11-12T05:40:05;20;23;
66111;PMS7003;52890;52.490;4.976;2022-11-12T05:41:05;30;25;
66111;PMS7003;52890;52.490;4.976;2022-11-12T05:42:05;18;31;
66111;PMS7003;52890;52.490;4.976;2022-11-12T05:43:05;25;18;
66111;PMS7003;52890;52.490;4.976;2022-11-12T05:44:05;20;33;
66111;PMS7003;52890;52.490;4.976;2022-11-12T05:45:06;22;20;
66111;PMS7003;52890;52.490;4.976;2022-11-12T05:46:05;27;22;
66111;PMS7003;52890;52.490;4.976;2022-11-12T05:47:05;21;29;
66111;PMS7003;52890;52.490;4.976;2022-11-12T05:48:05;22;28;
66111;PMS7003;52890;52.490;4.976;2022-11-12T05:49:05;30;25;
66111;PMS7003;52890;52.490;4.976;2022-11-12T05:50:05;26;30;
66111;PMS7003;52890;52.490;4.976;2022-11-12T05:51:05;21;29;
66111;PMS7003;52890;52.490;4.976;2022-11-12T05:52:05;22;21;
66111;PMS7003;52890;52.490;4.976;2022-11-12T05:53:05;24;33;
66111;PMS7003;52890;52.490;4.976;2022-11-12T05:54:05;33;26;
66111;PMS7003;52890;52.490;4.976;2022-11-12T05:55:05;14;35;
66111;PMS7003;52890;52.490;4.976;2022-11-12T05:56:05;15;14;
66111;PMS7003;52890;52.490;4.976;2022-11-12T05:57:05;26;15;
66111;PMS7003;52890;52.490;4.976;2022-11-12T05:58:05;25;41;
66111;PMS7003;52890;52.490;4.976;2022-11-12T05:59:06;26;25;
66111;PMS7003;52890;52.490;4.976;2022-11-12T06:00:05;12;27;
66111;PMS7003;52890;52.490;4.976;2022-11-12T06:01:05;26;12;
66111;PMS7003;52890;52.490;4.976;2022-11-12T06:02:05;27;26;
66111;PMS7003;52890;52.490;4.976;2022-11-12T06:03:05;21;30;
66111;PMS7003;52890;52.490;4.976;2022-11-12T06:04:05;26;29;
66111;PMS7003;52890;52.490;4.976;2022-11-12T06:05:05;21;34;
66111;PMS7003;52890;52.490;4.976;2022-11-12T06:06:06;23;27;
66111;PMS7003;52890;52.490;4.976;2022-11-12T06:07:06;20;23;
66111;PMS7003;52890;52.490;4.976;2022-11-12T06:08:05;23;29;
66111;PMS7003;52890;52.490;4.976;2022-11-12T06:09:05;24;26;
66111;PMS7003;52890;52.490;4.976;2022-11-12T06:10:05;7;26;
66111;PMS7003;52890;52.490;4.976;2022-11-12T06:11:05;22;7;
66111;PMS7003;52890;52.490;4.976;2022-11-12T06:12:05;16;22;
66111;PMS7003;52890;52.490;4.976;2022-11-12T06:13:05;21;19;
66111;PMS7003;52890;52.490;4.976;2022-11-12T06:14:05;16;28;
66111;PMS7003;52890;52.490;4.976;2022-11-12T06:15:05;25;16;
66111;PMS7003;52890;52.490;4.976;2022-11-12T06:16:06;22;28;
66111;PMS7003;52890;52.490;4.976;2022-11-12T06:17:05;23;25;
66111;PMS7003;52890;52.490;4.976;2022-11-12T06:18:05;25;23;
66111;PMS7003;52890;52.490;4.976;2022-11-12T06:19:05;23;33;
66111;PMS7003;52890;52.490;4.976;2022-11-12T06:20:05;20;23;
66111;PMS7003;52890;52.490;4.976;2022-11-12T06:21:06;25;20;
66111;PMS7003;52890;52.490;4.976;2022-11-12T06:22:05;15;25;
66111;PMS7003;52890;52.490;4.976;2022-11-12T06:23:05;25;15;
66111;PMS7003;52890;52.490;4.976;2022-11-12T06:24:05;20;26;
66111;PMS7003;52890;52.490;4.976;2022-11-12T06:25:05;24;20;
66111;PMS7003;52890;52.490;4.976;2022-11-12T06:26:05;27;33;
66111;PMS7003;52890;52.490;4.976;2022-11-12T06:27:05;24;27;
66111;PMS7003;52890;52.490;4.976;2022-11-12T06:28:05;25;26;
66111;PMS7003;52890;52.490;4.976;2022-11-12T06:29:05;19;25;
66111;PMS7003;52890;52.490;4.976;2022-11-12T06:30:05;20;19;
66111;PMS7003;52890;52.490;4.976;2022-11-12T06:31:05;23;20;
66111;PMS7003;52890;52.490;4.976;2022-11-12T06:32:05;21;25;
66111;PMS7003;52890;52.490;4.976;2022-11-12T06:33:05;21;21;
66111;PMS7003;52890;52.490;4.976;2022-11-12T06:34:05;16;23;
66111;PMS7003;52890;52.490;4.976;2022-11-12T06:35:05;23;16;
66111;PMS7003;52890;52.490;4.976;2022-11-12T06:36:05;21;25;
66111;PMS7003;52890;52.490;4.976;2022-11-12T06:37:05;26;24;
66111;PMS7003;52890;52.490;4.976;2022-11-12T06:38:05;21;28;
66111;PMS7003;52890;52.490;4.976;2022-11-12T06:39:05;25;26;
66111;PMS7003;52890;52.490;4.976;2022-11-12T06:40:05;25;25;
66111;PMS7003;52890;52.490;4.976;2022-11-12T06:41:06;23;25;
66111;PMS7003;52890;52.490;4.976;2022-11-12T06:42:05;27;26;